sensor_id;sensor_type;location;lat;lon;timestamp;temperature;humidity
26803;DHT22;14378;51.796;5.808;2023-04-06T00:08:22;4.30;99.90
26803;DHT22;14378;51.796;5.808;2023-04-06T00:10:24;4.30;99.90
26803;DHT22;14378;51.796;5.808;2023-04-06T00:12:28;4.30;99.90
26803;DHT22;14378;51.796;5.808;2023-04-06T00:14:32;4.20;99.90
26803;DHT22;14378;51.796;5.808;2023-04-06T00:16:33;4.20;99.90
26803;DHT22;14378;51.796;5.808;2023-04-06T00:18:34;4.20;99.90
26803;DHT22;14378;51.796;5.808;2023-04-06T00:20:36;4.20;99.90
26803;DHT22;14378;51.796;5.808;2023-04-06T00:22:37;4.10;99.90
26803;DHT22;14378;51.796;5.808;2023-04-06T00:24:38;4.10;99.90
26803;DHT22;14378;51.796;5.808;2023-04-06T00:26:39;4.10;99.90
26803;DHT22;14378;51.796;5.808;2023-04-06T00:28:40;4.10;99.90
26803;DHT22;14378;51.796;5.808;2023-04-06T00:30:41;4.10;99.90
26803;DHT22;14378;51.796;5.808;2023-04-06T00:32:43;4.10;99.90
26803;DHT22;14378;51.796;5.808;2023-04-06T00:34:47;4.10;99.90
26803;DHT22;14378;51.796;5.808;2023-04-06T00:36:48;4.10;99.90
26803;DHT22;14378;51.796;5.808;2023-04-06T00:38:50;4.10;99.90
26803;DHT22;14378;51.796;5.808;2023-04-06T00:40:51;4.00;99.90
26803;DHT22;14378;51.796;5.808;2023-04-06T00:42:53;4.00;99.90
26803;DHT22;14378;51.796;5.808;2023-04-06T00:44:55;4.00;99.90
26803;DHT22;14378;51.796;5.808;2023-04-06T00:46:57;4.00;99.90
26803;DHT22;14378;51.796;5.808;2023-04-06T00:48:58;4.00;99.90
26803;DHT22;14378;51.796;5.808;2023-04-06T00:51:00;3.90;99.90
26803;DHT22;14378;51.796;5.808;2023-04-06T00:53:01;3.90;99.90
26803;DHT22;14378;51.796;5.808;2023-04-06T00:55:11;3.90;99.90
26803;DHT22;14378;51.796;5.808;2023-04-06T00:57:19;3.90;99.90
26803;DHT22;14378;51.796;5.808;2023-04-06T00:59:28;3.90;99.90
26803;DHT22;14378;51.796;5.808;2023-04-06T01:01:30;3.90;99.90
26803;DHT22;14378;51.796;5.808;2023-04-06T01:03:38;3.90;99.90
26803;DHT22;14378;51.796;5.808;2023-04-06T01:05:39;3.90;99.90
26803;DHT22;14378;51.796;5.808;2023-04-06T01:07:47;3.80;99.90
26803;DHT22;14378;51.796;5.808;2023-04-06T01:09:54;3.80;99.90
26803;DHT22;14378;51.796;5.808;2023-04-06T01:11:59;3.80;99.90
26803;DHT22;14378;51.796;5.808;2023-04-06T01:14:08;3.80;99.90
26803;DHT22;14378;51.796;5.808;2023-04-06T01:16:33;3.80;99.90
26803;DHT22;14378;51.796;5.808;2023-04-06T01:19:13;3.80;99.90
26803;DHT22;14378;51.796;5.808;2023-04-06T01:21:25;3.80;99.90
26803;DHT22;14378;51.796;5.808;2023-04-06T01:23:51;3.70;99.90
26803;DHT22;14378;51.796;5.808;2023-04-06T01:25:59;3.70;99.90
26803;DHT22;14378;51.796;5.808;2023-04-06T01:28:02;3.70;99.90
26803;DHT22;14378;51.796;5.808;2023-04-06T01:30:22;3.70;99.90
26803;DHT22;14378;51.796;5.808;2023-04-06T01:32:27;3.70;99.90
26803;DHT22;14378;51.796;5.808;2023-04-06T01:34:28;3.70;99.90
26803;DHT22;14378;51.796;5.808;2023-04-06T01:36:37;3.70;99.90
26803;DHT22;14378;51.796;5.808;2023-04-06T01:38:55;3.60;99.90
26803;DHT22;14378;51.796;5.808;2023-04-06T01:41:07;3.60;99.90
26803;DHT22;14378;51.796;5.808;2023-04-06T01:43:22;3.60;99.90
26803;DHT22;14378;51.796;5.808;2023-04-06T01:45:45;3.60;99.90
26803;DHT22;14378;51.796;5.808;2023-04-06T01:47:50;3.60;99.90
26803;DHT22;14378;51.796;5.808;2023-04-06T01:49:52;3.50;99.90
26803;DHT22;14378;51.796;5.808;2023-04-06T01:51:57;3.50;99.90
26803;DHT22;14378;51.796;5.808;2023-04-06T01:53:59;3.50;99.90
26803;DHT22;14378;51.796;5.808;2023-04-06T01:56:30;3.50;99.90
26803;DHT22;14378;51.796;5.808;2023-04-06T01:58:37;3.50;99.90
26803;DHT22;14378;51.796;5.808;2023-04-06T02:00:39;3.60;99.90
26803;DHT22;14378;51.796;5.808;2023-04-06T02:02:40;3.60;99.90
26803;DHT22;14378;51.796;5.808;2023-04-06T02:04:48;3.60;99.90
26803;DHT22;14378;51.796;5.808;2023-04-06T02:06:49;3.60;99.90
26803;DHT22;14378;51.796;5.808;2023-04-06T02:08:55;3.60;99.90
26803;DHT22;14378;51.796;5.808;2023-04-06T02:10:56;3.60;99.90
26803;DHT22;14378;51.796;5.808;2023-04-06T02:13:04;3.70;99.90
26803;DHT22;14378;51.796;5.808;2023-04-06T02:15:06;3.70;99.90
26803;DHT22;14378;51.796;5.808;2023-04-06T02:17:07;3.70;99.90
26803;DHT22;14378;51.796;5.808;2023-04-06T02:19:08;3.70;99.90
26803;DHT22;14378;51.796;5.808;2023-04-06T02:21:09;3.70;99.90
26803;DHT22;14378;51.796;5.808;2023-04-06T02:23:13;3.70;99.90
26803;DHT22;14378;51.796;5.808;2023-04-06T02:25:14;3.70;99.90
26803;DHT22;14378;51.796;5.808;2023-04-06T02:27:17;3.70;99.90
26803;DHT22;14378;51.796;5.808;2023-04-06T02:29:21;3.70;99.90
26803;DHT22;14378;51.796;5.808;2023-04-06T02:31:23;3.70;99.90
26803;DHT22;14378;51.796;5.808;2023-04-06T02:33:25;3.70;99.90
26803;DHT22;14378;51.796;5.808;2023-04-06T02:35:28;3.70;99.90
26803;DHT22;14378;51.796;5.808;2023-04-06T02:37:30;3.70;99.90
26803;DHT22;14378;51.796;5.808;2023-04-06T02:39:30;3.80;99.90
26803;DHT22;14378;51.796;5.808;2023-04-06T02:41:32;3.70;99.90
26803;DHT22;14378;51.796;5.808;2023-04-06T02:43:34;3.70;99.90
26803;DHT22;14378;51.796;5.808;2023-04-06T02:45:40;3.80;99.90
26803;DHT22;14378;51.796;5.808;2023-04-06T02:47:42;3.80;99.90
26803;DHT22;14378;51.796;5.808;2023-04-06T02:49:43;3.80;99.90
26803;DHT22;14378;51.796;5.808;2023-04-06T02:51:51;3.80;99.90
26803;DHT22;14378;51.796;5.808;2023-04-06T02:53:58;3.80;99.90
26803;DHT22;14378;51.796;5.808;2023-04-06T02:55:59;3.80;99.90
26803;DHT22;14378;51.796;5.808;2023-04-06T02:58:08;3.90;99.90
26803;DHT22;14378;51.796;5.808;2023-04-06T03:00:18;3.90;99.90
26803;DHT22;14378;51.796;5.808;2023-04-06T03:02:19;3.90;99.90
26803;DHT22;14378;51.796;5.808;2023-04-06T03:04:20;3.90;99.90
26803;DHT22;14378;51.796;5.808;2023-04-06T03:06:28;4.00;99.90
26803;DHT22;14378;51.796;5.808;2023-04-06T03:08:34;4.00;99.90
26803;DHT22;14378;51.796;5.808;2023-04-06T03:10:35;4.00;99.90
26803;DHT22;14378;51.796;5.808;2023-04-06T03:12:36;4.00;99.90
26803;DHT22;14378;51.796;5.808;2023-04-06T03:14:58;4.00;99.90
26803;DHT22;14378;51.796;5.808;2023-04-06T03:17:00;4.10;99.90
26803;DHT22;14378;51.796;5.808;2023-04-06T03:19:01;4.10;99.90
26803;DHT22;14378;51.796;5.808;2023-04-06T03:21:03;4.10;99.90
26803;DHT22;14378;51.796;5.808;2023-04-06T03:23:17;4.20;99.90
26803;DHT22;14378;51.796;5.808;2023-04-06T03:25:25;4.20;99.90
26803;DHT22;14378;51.796;5.808;2023-04-06T03:27:28;4.20;99.90
26803;DHT22;14378;51.796;5.808;2023-04-06T03:29:29;4.30;99.90
26803;DHT22;14378;51.796;5.808;2023-04-06T03:31:30;4.30;99.90
26803;DHT22;14378;51.796;5.808;2023-04-06T03:33:54;4.30;99.90
26803;DHT22;14378;51.796;5.808;2023-04-06T03:36:17;4.30;99.90
26803;DHT22;14378;51.796;5.808;2023-04-06T03:38:19;4.40;99.90
26803;DHT22;14378;51.796;5.808;2023-04-06T03:40:19;4.40;99.90
26803;DHT22;14378;51.796;5.808;2023-04-06T03:42:21;4.50;99.90
26803;DHT22;14378;51.796;5.808;2023-04-06T03:44:29;4.50;99.90
26803;DHT22;14378;51.796;5.808;2023-04-06T03:46:30;4.50;99.90
26803;DHT22;14378;51.796;5.808;2023-04-06T03:48:33;4.60;99.90
26803;DHT22;14378;51.796;5.808;2023-04-06T03:50:37;4.60;99.90
26803;DHT22;14378;51.796;5.808;2023-04-06T03:52:40;4.60;99.90
26803;DHT22;14378;51.796;5.808;2023-04-06T03:54:41;4.60;99.90
26803;DHT22;14378;51.796;5.808;2023-04-06T03:56:48;4.60;99.90
26803;DHT22;14378;51.796;5.808;2023-04-06T03:58:49;4.70;99.90
26803;DHT22;14378;51.796;5.808;2023-04-06T04:00:51;4.70;99.90
26803;DHT22;14378;51.796;5.808;2023-04-06T04:02:52;4.70;99.90
26803;DHT22;14378;51.796;5.808;2023-04-06T04:04:55;4.70;99.90
26803;DHT22;14378;51.796;5.808;2023-04-06T04:06:57;4.70;99.90
26803;DHT22;14378;51.796;5.808;2023-04-06T04:08:57;4.70;99.90
26803;DHT22;14378;51.796;5.808;2023-04-06T04:10:58;4.70;99.90
26803;DHT22;14378;51.796;5.808;2023-04-06T04:13:00;4.70;99.90
26803;DHT22;14378;51.796;5.808;2023-04-06T04:15:01;4.80;99.90
26803;DHT22;14378;51.796;5.808;2023-04-06T04:17:03;4.80;99.90
26803;DHT22;14378;51.796;5.808;2023-04-06T04:19:05;4.80;99.90
26803;DHT22;14378;51.796;5.808;2023-04-06T04:21:06;4.80;99.90
26803;DHT22;14378;51.796;5.808;2023-04-06T04:23:07;4.80;99.90
26803;DHT22;14378;51.796;5.808;2023-04-06T04:25:09;4.80;99.90
26803;DHT22;14378;51.796;5.808;2023-04-06T04:27:18;4.90;99.90
26803;DHT22;14378;51.796;5.808;2023-04-06T04:29:22;4.90;99.90
26803;DHT22;14378;51.796;5.808;2023-04-06T04:31:25;4.90;99.90
26803;DHT22;14378;51.796;5.808;2023-04-06T04:33:30;4.90;99.90
26803;DHT22;14378;51.796;5.808;2023-04-06T04:35:33;4.90;99.90
26803;DHT22;14378;51.796;5.808;2023-04-06T04:37:34;4.90;99.90
26803;DHT22;14378;51.796;5.808;2023-04-06T04:39:37;4.90;99.90
26803;DHT22;14378;51.796;5.808;2023-04-06T04:41:41;4.90;99.90
26803;DHT22;14378;51.796;5.808;2023-04-06T04:43:44;4.90;99.90
26803;DHT22;14378;51.796;5.808;2023-04-06T04:45:48;5.00;99.90
26803;DHT22;14378;51.796;5.808;2023-04-06T04:48:02;4.90;99.90
26803;DHT22;14378;51.796;5.808;2023-04-06T04:50:13;5.00;99.90
26803;DHT22;14378;51.796;5.808;2023-04-06T04:52:18;4.90;99.90
26803;DHT22;14378;51.796;5.808;2023-04-06T04:54:30;5.00;99.90
26803;DHT22;14378;51.796;5.808;2023-04-06T04:56:32;5.00;99.90
26803;DHT22;14378;51.796;5.808;2023-04-06T04:58:52;5.00;99.90
26803;DHT22;14378;51.796;5.808;2023-04-06T05:00:58;5.00;99.90
26803;DHT22;14378;51.796;5.808;2023-04-06T05:03:00;4.90;99.90
26803;DHT22;14378;51.796;5.808;2023-04-06T05:05:07;4.90;99.90
26803;DHT22;14378;51.796;5.808;2023-04-06T05:07:09;4.90;99.90
26803;DHT22;14378;51.796;5.808;2023-04-06T05:09:14;4.90;99.90
26803;DHT22;14378;51.796;5.808;2023-04-06T05:11:18;4.90;99.90
26803;DHT22;14378;51.796;5.808;2023-04-06T05:13:26;4.90;99.90
26803;DHT22;14378;51.796;5.808;2023-04-06T05:15:29;4.90;99.90
26803;DHT22;14378;51.796;5.808;2023-04-06T05:17:47;4.90;99.90
26803;DHT22;14378;51.796;5.808;2023-04-06T05:19:54;4.90;99.90
26803;DHT22;14378;51.796;5.808;2023-04-06T05:21:58;4.90;99.90
26803;DHT22;14378;51.796;5.808;2023-04-06T05:24:00;4.90;99.90
26803;DHT22;14378;51.796;5.808;2023-04-06T05:26:04;4.90;99.90
26803;DHT22;14378;51.796;5.808;2023-04-06T05:28:07;4.90;99.90
26803;DHT22;14378;51.796;5.808;2023-04-06T05:30:11;4.90;99.90
26803;DHT22;14378;51.796;5.808;2023-04-06T05:32:18;4.90;99.90
26803;DHT22;14378;51.796;5.808;2023-04-06T05:34:24;4.90;99.90
26803;DHT22;14378;51.796;5.808;2023-04-06T05:36:26;4.90;99.90
26803;DHT22;14378;51.796;5.808;2023-04-06T05:38:27;5.00;99.90
26803;DHT22;14378;51.796;5.808;2023-04-06T05:40:31;4.90;99.90
26803;DHT22;14378;51.796;5.808;2023-04-06T05:42:41;4.90;99.90
26803;DHT22;14378;51.796;5.808;2023-04-06T05:44:48;4.90;99.90
26803;DHT22;14378;51.796;5.808;2023-04-06T05:46:51;5.00;99.90
26803;DHT22;14378;51.796;5.808;2023-04-06T05:48:52;5.00;99.90
26803;DHT22;14378;51.796;5.808;2023-04-06T05:50:58;5.00;99.90
26803;DHT22;14378;51.796;5.808;2023-04-06T05:53:06;5.00;99.90
26803;DHT22;14378;51.796;5.808;2023-04-06T05:55:23;5.10;99.90
26803;DHT22;14378;51.796;5.808;2023-04-06T05:57:33;5.10;99.90
26803;DHT22;14378;51.796;5.808;2023-04-06T05:59:34;5.10;99.90
26803;DHT22;14378;51.796;5.808;2023-04-06T06:01:37;5.10;99.90
26803;DHT22;14378;51.796;5.808;2023-04-06T06:03:40;5.20;99.90
26803;DHT22;14378;51.796;5.808;2023-04-06T06:05:41;5.20;99.90
26803;DHT22;14378;51.796;5.808;2023-04-06T06:07:52;5.20;99.90
26803;DHT22;14378;51.796;5.808;2023-04-06T06:09:58;5.30;99.90
26803;DHT22;14378;51.796;5.808;2023-04-06T06:12:06;5.30;99.90
26803;DHT22;14378;51.796;5.808;2023-04-06T06:14:09;5.40;99.90
26803;DHT22;14378;51.796;5.808;2023-04-06T06:16:13;5.50;99.90
26803;DHT22;14378;51.796;5.808;2023-04-06T06:18:19;5.50;99.90
26803;DHT22;14378;51.796;5.808;2023-04-06T06:20:23;5.60;99.90
26803;DHT22;14378;51.796;5.808;2023-04-06T06:22:24;5.60;99.90
26803;DHT22;14378;51.796;5.808;2023-04-06T06:24:25;5.70;99.90
26803;DHT22;14378;51.796;5.808;2023-04-06T06:26:26;5.80;99.90
26803;DHT22;14378;51.796;5.808;2023-04-06T06:28:31;5.90;99.90
26803;DHT22;14378;51.796;5.808;2023-04-06T06:30:32;5.90;99.90
26803;DHT22;14378;51.796;5.808;2023-04-06T06:32:34;6.00;99.90
26803;DHT22;14378;51.796;5.808;2023-04-06T06:34:36;6.10;99.90
26803;DHT22;14378;51.796;5.808;2023-04-06T06:36:40;6.20;99.90
26803;DHT22;14378;51.796;5.808;2023-04-06T06:38:50;6.20;99.90
26803;DHT22;14378;51.796;5.808;2023-04-06T06:40:53;6.30;99.90
26803;DHT22;14378;51.796;5.808;2023-04-06T06:43:06;6.30;99.90
26803;DHT22;14378;51.796;5.808;2023-04-06T06:45:26;6.40;99.90
26803;DHT22;14378;51.796;5.808;2023-04-06T06:47:28;6.50;99.90
26803;DHT22;14378;51.796;5.808;2023-04-06T06:49:32;6.50;99.90
26803;DHT22;14378;51.796;5.808;2023-04-06T06:51:33;6.60;99.90
26803;DHT22;14378;51.796;5.808;2023-04-06T06:53:35;6.70;99.90
26803;DHT22;14378;51.796;5.808;2023-04-06T06:55:42;6.70;99.90
26803;DHT22;14378;51.796;5.808;2023-04-06T06:57:45;6.70;99.90
26803;DHT22;14378;51.796;5.808;2023-04-06T06:59:50;6.80;99.90
26803;DHT22;14378;51.796;5.808;2023-04-06T07:01:53;6.80;99.90
26803;DHT22;14378;51.796;5.808;2023-04-06T07:03:54;6.90;99.90
26803;DHT22;14378;51.796;5.808;2023-04-06T07:05:55;6.90;99.90
26803;DHT22;14378;51.796;5.808;2023-04-06T07:07:58;7.00;99.90
26803;DHT22;14378;51.796;5.808;2023-04-06T07:10:02;7.00;99.90
26803;DHT22;14378;51.796;5.808;2023-04-06T07:12:04;7.10;99.90
26803;DHT22;14378;51.796;5.808;2023-04-06T07:14:05;7.10;99.90
26803;DHT22;14378;51.796;5.808;2023-04-06T07:16:06;7.20;99.90
26803;DHT22;14378;51.796;5.808;2023-04-06T07:18:07;7.30;99.90
26803;DHT22;14378;51.796;5.808;2023-04-06T07:20:09;7.30;99.90
26803;DHT22;14378;51.796;5.808;2023-04-06T07:22:10;7.40;99.90
26803;DHT22;14378;51.796;5.808;2023-04-06T07:24:11;7.40;99.90
26803;DHT22;14378;51.796;5.808;2023-04-06T07:26:12;7.50;99.90
26803;DHT22;14378;51.796;5.808;2023-04-06T07:28:13;7.60;99.90
26803;DHT22;14378;51.796;5.808;2023-04-06T07:30:15;7.70;99.90
26803;DHT22;14378;51.796;5.808;2023-04-06T07:32:21;7.80;99.90
26803;DHT22;14378;51.796;5.808;2023-04-06T07:34:22;7.90;99.90
26803;DHT22;14378;51.796;5.808;2023-04-06T07:36:26;7.90;99.90
26803;DHT22;14378;51.796;5.808;2023-04-06T07:38:27;8.00;99.90
26803;DHT22;14378;51.796;5.808;2023-04-06T07:40:34;8.10;99.90
26803;DHT22;14378;51.796;5.808;2023-04-06T07:42:35;8.10;99.90
26803;DHT22;14378;51.796;5.808;2023-04-06T07:44:42;8.20;99.90
26803;DHT22;14378;51.796;5.808;2023-04-06T07:46:45;8.30;99.90
26803;DHT22;14378;51.796;5.808;2023-04-06T07:48:47;8.30;99.90
26803;DHT22;14378;51.796;5.808;2023-04-06T07:50:51;8.40;99.90
26803;DHT22;14378;51.796;5.808;2023-04-06T07:52:52;8.40;99.90
26803;DHT22;14378;51.796;5.808;2023-04-06T07:54:55;8.50;99.90
26803;DHT22;14378;51.796;5.808;2023-04-06T07:56:57;8.50;99.90
26803;DHT22;14378;51.796;5.808;2023-04-06T07:58:58;8.50;99.90
26803;DHT22;14378;51.796;5.808;2023-04-06T08:00:59;8.50;99.90
26803;DHT22;14378;51.796;5.808;2023-04-06T08:03:01;8.50;99.90
26803;DHT22;14378;51.796;5.808;2023-04-06T08:05:02;8.50;99.90
26803;DHT22;14378;51.796;5.808;2023-04-06T08:07:03;8.60;99.90
26803;DHT22;14378;51.796;5.808;2023-04-06T08:09:04;8.70;99.90
26803;DHT22;14378;51.796;5.808;2023-04-06T08:11:05;8.70;99.90
26803;DHT22;14378;51.796;5.808;2023-04-06T08:13:06;8.80;99.90
26803;DHT22;14378;51.796;5.808;2023-04-06T08:15:09;8.80;99.90
26803;DHT22;14378;51.796;5.808;2023-04-06T08:17:10;8.90;99.90
26803;DHT22;14378;51.796;5.808;2023-04-06T08:19:11;8.90;99.90
26803;DHT22;14378;51.796;5.808;2023-04-06T08:21:12;9.00;99.90
26803;DHT22;14378;51.796;5.808;2023-04-06T08:23:13;9.00;99.90
26803;DHT22;14378;51.796;5.808;2023-04-06T08:25:14;9.10;99.90
26803;DHT22;14378;51.796;5.808;2023-04-06T08:27:15;9.20;99.90
26803;DHT22;14378;51.796;5.808;2023-04-06T08:29:17;9.20;99.90
26803;DHT22;14378;51.796;5.808;2023-04-06T08:31:18;9.30;99.90
26803;DHT22;14378;51.796;5.808;2023-04-06T08:33:19;9.30;99.90
26803;DHT22;14378;51.796;5.808;2023-04-06T08:35:21;9.40;99.90
26803;DHT22;14378;51.796;5.808;2023-04-06T08:37:22;9.40;99.90
26803;DHT22;14378;51.796;5.808;2023-04-06T08:39:23;9.50;99.90
26803;DHT22;14378;51.796;5.808;2023-04-06T08:41:27;9.50;99.90
26803;DHT22;14378;51.796;5.808;2023-04-06T08:43:29;9.60;99.90
26803;DHT22;14378;51.796;5.808;2023-04-06T08:45:41;9.60;99.90
26803;DHT22;14378;51.796;5.808;2023-04-06T08:47:50;9.60;99.90
26803;DHT22;14378;51.796;5.808;2023-04-06T08:49:52;9.70;99.90
26803;DHT22;14378;51.796;5.808;2023-04-06T08:51:55;9.70;99.90
26803;DHT22;14378;51.796;5.808;2023-04-06T08:53:57;9.80;99.90
26803;DHT22;14378;51.796;5.808;2023-04-06T08:55:59;9.90;99.90
26803;DHT22;14378;51.796;5.808;2023-04-06T08:58:01;10.00;99.90
26803;DHT22;14378;51.796;5.808;2023-04-06T09:00:02;10.10;99.90
26803;DHT22;14378;51.796;5.808;2023-04-06T09:02:07;10.30;99.90
26803;DHT22;14378;51.796;5.808;2023-04-06T09:04:14;10.30;99.90
26803;DHT22;14378;51.796;5.808;2023-04-06T09:06:16;10.40;99.90
26803;DHT22;14378;51.796;5.808;2023-04-06T09:08:19;10.50;99.90
26803;DHT22;14378;51.796;5.808;2023-04-06T09:10:20;10.50;99.90
26803;DHT22;14378;51.796;5.808;2023-04-06T09:12:30;10.60;99.90
26803;DHT22;14378;51.796;5.808;2023-04-06T09:14:37;10.70;99.90
26803;DHT22;14378;51.796;5.808;2023-04-06T09:16:40;10.80;99.90
26803;DHT22;14378;51.796;5.808;2023-04-06T09:18:42;10.90;99.90
26803;DHT22;14378;51.796;5.808;2023-04-06T09:20:43;11.00;99.90
26803;DHT22;14378;51.796;5.808;2023-04-06T09:22:44;11.10;99.90
26803;DHT22;14378;51.796;5.808;2023-04-06T09:24:54;11.10;99.90
26803;DHT22;14378;51.796;5.808;2023-04-06T09:26:55;11.20;99.90
26803;DHT22;14378;51.796;5.808;2023-04-06T09:28:58;11.30;99.90
26803;DHT22;14378;51.796;5.808;2023-04-06T09:31:00;11.30;99.90
26803;DHT22;14378;51.796;5.808;2023-04-06T09:33:01;11.40;99.90
26803;DHT22;14378;51.796;5.808;2023-04-06T09:35:07;11.40;99.90
26803;DHT22;14378;51.796;5.808;2023-04-06T09:37:18;11.40;99.90
26803;DHT22;14378;51.796;5.808;2023-04-06T09:39:22;11.50;99.90
26803;DHT22;14378;51.796;5.808;2023-04-06T09:41:32;11.50;99.90
26803;DHT22;14378;51.796;5.808;2023-04-06T09:43:33;11.50;99.90
26803;DHT22;14378;51.796;5.808;2023-04-06T09:45:34;11.60;99.90
26803;DHT22;14378;51.796;5.808;2023-04-06T09:47:40;11.60;99.90
26803;DHT22;14378;51.796;5.808;2023-04-06T09:49:43;11.70;99.80
26803;DHT22;14378;51.796;5.808;2023-04-06T09:51:58;11.60;99.50
26803;DHT22;14378;51.796;5.808;2023-04-06T09:54:00;11.50;99.90
26803;DHT22;14378;51.796;5.808;2023-04-06T09:56:06;11.50;99.90
26803;DHT22;14378;51.796;5.808;2023-04-06T09:58:13;11.50;99.90
26803;DHT22;14378;51.796;5.808;2023-04-06T10:00:20;11.50;99.90
26803;DHT22;14378;51.796;5.808;2023-04-06T10:02:33;11.50;99.90
26803;DHT22;14378;51.796;5.808;2023-04-06T10:04:48;11.50;99.90
26803;DHT22;14378;51.796;5.808;2023-04-06T10:06:50;11.60;99.90
26803;DHT22;14378;51.796;5.808;2023-04-06T10:08:56;11.70;99.90
26803;DHT22;14378;51.796;5.808;2023-04-06T10:10:58;11.70;99.90
26803;DHT22;14378;51.796;5.808;2023-04-06T10:13:02;11.70;99.90
26803;DHT22;14378;51.796;5.808;2023-04-06T10:15:03;11.80;99.90
26803;DHT22;14378;51.796;5.808;2023-04-06T10:17:05;11.80;99.90
26803;DHT22;14378;51.796;5.808;2023-04-06T10:19:12;11.90;99.90
26803;DHT22;14378;51.796;5.808;2023-04-06T10:21:18;11.90;99.90
26803;DHT22;14378;51.796;5.808;2023-04-06T10:23:33;12.00;99.90
26803;DHT22;14378;51.796;5.808;2023-04-06T10:25:35;12.00;99.90
26803;DHT22;14378;51.796;5.808;2023-04-06T10:27:37;12.00;99.90
26803;DHT22;14378;51.796;5.808;2023-04-06T10:29:50;12.00;99.90
26803;DHT22;14378;51.796;5.808;2023-04-06T10:31:51;12.10;99.90
26803;DHT22;14378;51.796;5.808;2023-04-06T10:34:02;12.10;99.90
26803;DHT22;14378;51.796;5.808;2023-04-06T10:36:23;12.20;99.90
26803;DHT22;14378;51.796;5.808;2023-04-06T10:38:34;12.30;99.90
26803;DHT22;14378;51.796;5.808;2023-04-06T10:40:37;12.40;99.90
26803;DHT22;14378;51.796;5.808;2023-04-06T10:42:39;12.40;99.90
26803;DHT22;14378;51.796;5.808;2023-04-06T10:44:43;12.20;99.90
26803;DHT22;14378;51.796;5.808;2023-04-06T10:46:56;12.20;99.90
26803;DHT22;14378;51.796;5.808;2023-04-06T10:49:09;12.30;99.90
26803;DHT22;14378;51.796;5.808;2023-04-06T10:51:15;12.40;99.90
26803;DHT22;14378;51.796;5.808;2023-04-06T10:53:24;12.30;99.90
26803;DHT22;14378;51.796;5.808;2023-04-06T10:55:27;12.30;99.90
26803;DHT22;14378;51.796;5.808;2023-04-06T10:57:31;12.40;99.90
26803;DHT22;14378;51.796;5.808;2023-04-06T10:59:33;12.40;99.90
26803;DHT22;14378;51.796;5.808;2023-04-06T11:01:34;12.40;99.90
26803;DHT22;14378;51.796;5.808;2023-04-06T11:03:43;12.30;99.90
26803;DHT22;14378;51.796;5.808;2023-04-06T11:05:46;12.30;99.90
26803;DHT22;14378;51.796;5.808;2023-04-06T11:07:48;12.30;99.90
26803;DHT22;14378;51.796;5.808;2023-04-06T11:09:50;12.20;99.90
26803;DHT22;14378;51.796;5.808;2023-04-06T11:11:50;12.20;99.90
26803;DHT22;14378;51.796;5.808;2023-04-06T11:13:59;12.20;99.90
26803;DHT22;14378;51.796;5.808;2023-04-06T11:16:00;12.10;99.90
26803;DHT22;14378;51.796;5.808;2023-04-06T11:18:04;12.10;99.90
26803;DHT22;14378;51.796;5.808;2023-04-06T11:20:10;12.00;99.90
26803;DHT22;14378;51.796;5.808;2023-04-06T11:22:11;11.90;99.90
26803;DHT22;14378;51.796;5.808;2023-04-06T11:24:20;11.80;99.90
26803;DHT22;14378;51.796;5.808;2023-04-06T11:26:43;11.70;99.90
26803;DHT22;14378;51.796;5.808;2023-04-06T11:28:45;11.60;99.90
26803;DHT22;14378;51.796;5.808;2023-04-06T11:30:51;11.60;99.90
26803;DHT22;14378;51.796;5.808;2023-04-06T11:33:00;11.40;99.90
26803;DHT22;14378;51.796;5.808;2023-04-06T11:35:03;11.30;99.90
26803;DHT22;14378;51.796;5.808;2023-04-06T11:37:09;11.20;99.90
26803;DHT22;14378;51.796;5.808;2023-04-06T11:39:11;11.10;99.90
26803;DHT22;14378;51.796;5.808;2023-04-06T11:41:15;11.10;99.90
26803;DHT22;14378;51.796;5.808;2023-04-06T11:43:17;11.10;99.90
26803;DHT22;14378;51.796;5.808;2023-04-06T11:45:18;11.00;99.90
26803;DHT22;14378;51.796;5.808;2023-04-06T11:47:20;11.00;99.90
26803;DHT22;14378;51.796;5.808;2023-04-06T11:49:28;10.90;99.90
26803;DHT22;14378;51.796;5.808;2023-04-06T11:51:30;10.90;99.90
26803;DHT22;14378;51.796;5.808;2023-04-06T11:53:31;10.80;99.90
26803;DHT22;14378;51.796;5.808;2023-04-06T11:55:39;10.80;99.90
26803;DHT22;14378;51.796;5.808;2023-04-06T11:57:41;10.70;99.90
26803;DHT22;14378;51.796;5.808;2023-04-06T11:59:43;10.70;99.90
26803;DHT22;14378;51.796;5.808;2023-04-06T12:01:49;10.80;99.90
26803;DHT22;14378;51.796;5.808;2023-04-06T12:03:52;10.70;99.90
26803;DHT22;14378;51.796;5.808;2023-04-06T12:05:53;10.70;99.90
26803;DHT22;14378;51.796;5.808;2023-04-06T12:07:55;10.70;99.90
26803;DHT22;14378;51.796;5.808;2023-04-06T12:09:56;10.60;99.90
26803;DHT22;14378;51.796;5.808;2023-04-06T12:11:57;10.60;99.90
26803;DHT22;14378;51.796;5.808;2023-04-06T12:13:58;10.60;99.90
26803;DHT22;14378;51.796;5.808;2023-04-06T12:16:02;10.50;99.90
26803;DHT22;14378;51.796;5.808;2023-04-06T12:18:03;10.60;99.90
26803;DHT22;14378;51.796;5.808;2023-04-06T12:20:04;10.50;99.90
26803;DHT22;14378;51.796;5.808;2023-04-06T12:22:09;10.50;99.90
26803;DHT22;14378;51.796;5.808;2023-04-06T12:24:10;10.50;99.90
26803;DHT22;14378;51.796;5.808;2023-04-06T12:26:11;10.50;99.90
26803;DHT22;14378;51.796;5.808;2023-04-06T12:28:12;10.40;99.90
26803;DHT22;14378;51.796;5.808;2023-04-06T12:30:20;10.40;99.90
26803;DHT22;14378;51.796;5.808;2023-04-06T12:32:21;10.30;99.90
26803;DHT22;14378;51.796;5.808;2023-04-06T12:34:22;10.30;99.90
26803;DHT22;14378;51.796;5.808;2023-04-06T12:36:23;10.20;99.90
26803;DHT22;14378;51.796;5.808;2023-04-06T12:38:24;10.20;99.90
26803;DHT22;14378;51.796;5.808;2023-04-06T12:40:25;10.20;99.90
26803;DHT22;14378;51.796;5.808;2023-04-06T12:42:26;10.10;99.90
26803;DHT22;14378;51.796;5.808;2023-04-06T12:44:28;10.10;99.90
26803;DHT22;14378;51.796;5.808;2023-04-06T12:46:29;10.10;99.90
26803;DHT22;14378;51.796;5.808;2023-04-06T12:48:31;10.10;99.90
26803;DHT22;14378;51.796;5.808;2023-04-06T12:50:33;10.10;99.90
26803;DHT22;14378;51.796;5.808;2023-04-06T12:52:34;10.10;99.90
26803;DHT22;14378;51.796;5.808;2023-04-06T12:54:36;10.00;99.90
26803;DHT22;14378;51.796;5.808;2023-04-06T12:56:37;10.00;99.90
26803;DHT22;14378;51.796;5.808;2023-04-06T12:58:38;10.00;99.90
26803;DHT22;14378;51.796;5.808;2023-04-06T13:00:41;10.00;99.90
26803;DHT22;14378;51.796;5.808;2023-04-06T13:02:42;10.00;99.90
26803;DHT22;14378;51.796;5.808;2023-04-06T13:04:50;10.00;99.90
26803;DHT22;14378;51.796;5.808;2023-04-06T13:06:54;10.00;99.90
26803;DHT22;14378;51.796;5.808;2023-04-06T13:08:59;10.10;99.90
26803;DHT22;14378;51.796;5.808;2023-04-06T13:11:00;10.10;99.90
26803;DHT22;14378;51.796;5.808;2023-04-06T13:13:01;10.00;99.90
26803;DHT22;14378;51.796;5.808;2023-04-06T13:15:02;10.00;99.90
26803;DHT22;14378;51.796;5.808;2023-04-06T13:17:03;10.00;99.90
26803;DHT22;14378;51.796;5.808;2023-04-06T13:19:05;10.00;99.90
26803;DHT22;14378;51.796;5.808;2023-04-06T13:21:13;10.00;99.90